Cross Village, Michigan
Current Conditions -  °F | °C
As of 8:54 PM on Thursday 20 Nov 2014 (Local Time) from KPLN Reporting Station
Light Snow Light Snow  
Wind Chill:   Ceiling: 3800
Heat Index: 18°   Visibility: 5mi
Dew Point: 10°   Wind: 21mph
Humidity: 71%   Direction: 310°NW
Pressure: 30.03"   Gusts: 26mph
Location:  45.64°N, 85.04°W
Report Text: KPLN 210154Z AUTO 31018G23KT 5SM -SN OVC038 M08/M12 A3003 RMK AO2 SNB09E34B54 SLP184 P0000 T10781122
Loading
Personal Weather Stations






























Interactive Weather Map New forecast layout! Learn more

10-Day Weather Forecast

Advertisements
Track Severe Weather on mobile